createdAt,value
2018-05-14T00:00:50.454Z,0.00
2018-05-14T00:01:50.469Z,0.00
2018-05-14T00:02:50.501Z,0.00
2018-05-14T00:03:50.535Z,0.00
2018-05-14T00:04:50.526Z,0.00
2018-05-14T00:05:50.556Z,0.00
2018-05-14T00:06:50.562Z,0.00
2018-05-14T00:07:50.658Z,0.00
2018-05-14T00:08:50.609Z,0.00
2018-05-14T00:09:50.680Z,0.00
2018-05-14T00:10:50.644Z,0.00
2018-05-14T00:11:50.662Z,0.00
2018-05-14T00:12:50.797Z,0.00
2018-05-14T00:13:50.699Z,0.00
2018-05-14T00:14:50.787Z,0.00
2018-05-14T00:15:50.761Z,0.00
2018-05-14T00:16:50.768Z,0.00
2018-05-14T00:17:50.873Z,0.00
2018-05-14T00:18:50.810Z,0.00
2018-05-14T00:19:50.820Z,0.00
2018-05-14T00:20:50.841Z,0.00
2018-05-14T00:21:50.981Z,0.00
2018-05-14T00:22:50.887Z,0.00
2018-05-14T00:23:50.900Z,0.00
2018-05-14T00:24:50.920Z,0.00
2018-05-14T00:25:50.941Z,0.00
2018-05-14T00:26:50.963Z,0.00
2018-05-14T00:27:50.976Z,0.00
2018-05-14T00:28:50.991Z,0.00
2018-05-14T00:29:51.017Z,0.00
2018-05-14T00:30:51.058Z,0.00
2018-05-14T00:31:51.074Z,0.00
2018-05-14T00:32:51.077Z,0.00
2018-05-14T00:33:51.097Z,0.00
2018-05-14T00:34:51.181Z,0.00
2018-05-14T00:35:51.241Z,0.00
2018-05-14T00:36:51.158Z,0.00
2018-05-14T00:37:51.200Z,0.00
2018-05-14T00:38:51.191Z,0.00
2018-05-14T00:39:51.219Z,0.00
2018-05-14T00:40:51.279Z,0.00
2018-05-14T00:41:51.251Z,0.00
2018-05-14T00:42:51.273Z,0.00
2018-05-14T00:43:51.289Z,0.00
2018-05-14T00:44:51.371Z,0.00
2018-05-14T00:45:51.359Z,0.00
2018-05-14T00:46:51.358Z,0.00
2018-05-14T00:47:51.372Z,0.00
2018-05-14T00:48:51.396Z,0.00
2018-05-14T00:49:51.405Z,0.00
2018-05-14T00:50:51.427Z,0.00
2018-05-14T00:51:51.446Z,0.00
2018-05-14T00:52:51.462Z,0.00
2018-05-14T00:53:51.489Z,0.00
2018-05-14T00:54:51.531Z,0.00
2018-05-14T00:55:51.532Z,0.00
2018-05-14T00:56:51.541Z,0.00
2018-05-14T00:57:51.652Z,0.00
2018-05-14T00:58:51.640Z,0.00
2018-05-14T00:59:51.643Z,0.00
2018-05-14T01:00:51.631Z,0.00
2018-05-14T01:01:51.645Z,0.00
2018-05-14T01:02:51.663Z,0.00
2018-05-14T01:03:51.687Z,0.00
2018-05-14T01:04:51.700Z,0.00
2018-05-14T01:05:51.731Z,0.00
2018-05-14T01:06:51.767Z,0.00
2018-05-14T01:07:51.794Z,0.00
2018-05-14T01:08:51.866Z,0.00
2018-05-14T01:09:51.810Z,0.00
2018-05-14T01:10:51.822Z,0.00
2018-05-14T01:11:51.839Z,0.00
2018-05-14T01:12:51.857Z,0.00
2018-05-14T01:13:51.877Z,0.00
2018-05-14T01:14:51.898Z,0.00
2018-05-14T01:15:51.914Z,0.00
2018-05-14T01:16:51.935Z,0.00
2018-05-14T01:17:51.991Z,0.00
2018-05-14T01:18:52.033Z,0.00
2018-05-14T01:19:51.995Z,0.00
2018-05-14T01:20:52.083Z,0.00
2018-05-14T01:21:52.031Z,0.00
2018-05-14T01:22:52.088Z,0.00
2018-05-14T01:23:52.083Z,0.00
2018-05-14T01:24:52.103Z,0.00
2018-05-14T01:25:52.110Z,0.00
2018-05-14T01:26:52.135Z,0.00
2018-05-14T01:27:52.187Z,0.00
2018-05-14T01:28:52.189Z,0.00
2018-05-14T01:29:52.281Z,0.00
2018-05-14T01:30:52.276Z,0.00
2018-05-14T01:31:52.246Z,0.00
2018-05-14T01:32:52.252Z,0.00
2018-05-14T01:33:52.321Z,0.00
2018-05-14T01:34:52.291Z,0.00
2018-05-14T01:35:52.308Z,0.00
2018-05-14T01:36:52.329Z,0.00
2018-05-14T01:37:52.341Z,0.00
2018-05-14T01:38:52.378Z,0.00
2018-05-14T01:39:52.405Z,0.00
2018-05-14T01:40:52.404Z,0.00
2018-05-14T01:41:52.482Z,0.00
2018-05-14T01:42:52.462Z,0.00
2018-05-14T01:43:52.465Z,0.00
2018-05-14T01:44:52.504Z,0.00
2018-05-14T01:45:52.615Z,0.00
2018-05-14T01:46:52.576Z,0.00
2018-05-14T01:47:52.544Z,0.00
2018-05-14T01:48:52.559Z,0.00
2018-05-14T01:49:52.676Z,0.00
2018-05-14T01:50:52.609Z,0.00
2018-05-14T01:51:52.618Z,0.00
2018-05-14T01:52:52.670Z,0.00
2018-05-14T01:53:52.652Z,0.00
2018-05-14T01:54:52.679Z,0.00
2018-05-14T01:55:52.694Z,0.00
2018-05-14T01:56:52.713Z,0.00
2018-05-14T01:57:52.749Z,0.00
2018-05-14T01:58:52.754Z,0.00
2018-05-14T01:59:52.778Z,0.00
2018-05-14T02:00:52.848Z,0.00
2018-05-14T02:01:52.816Z,0.00
2018-05-14T02:02:52.836Z,0.00
2018-05-14T02:03:52.893Z,0.00
2018-05-14T02:04:52.870Z,0.00
2018-05-14T02:05:52.887Z,0.00
2018-05-14T02:06:52.932Z,0.00
2018-05-14T02:07:52.926Z,0.00
2018-05-14T02:08:52.944Z,0.00
2018-05-14T02:09:52.969Z,0.00
2018-05-14T02:10:53.121Z,0.00
2018-05-14T02:11:53.053Z,0.00
2018-05-14T02:12:53.127Z,0.00
2018-05-14T02:13:53.047Z,0.00
2018-05-14T02:14:53.124Z,0.00
2018-05-14T02:15:53.081Z,0.00
2018-05-14T02:16:53.101Z,0.00
2018-05-14T02:17:53.181Z,0.00
2018-05-14T02:18:53.143Z,0.00
2018-05-14T02:19:53.161Z,0.00
2018-05-14T02:20:53.322Z,0.00
2018-05-14T02:21:53.204Z,0.00
2018-05-14T02:22:53.235Z,0.00
2018-05-14T02:23:53.301Z,0.00
2018-05-14T02:24:53.257Z,0.00
2018-05-14T02:25:53.365Z,0.00
2018-05-14T02:26:53.316Z,0.00
2018-05-14T02:27:53.324Z,0.00
2018-05-14T02:28:53.342Z,0.00
2018-05-14T02:29:53.356Z,0.00
2018-05-14T02:30:53.448Z,0.00
2018-05-14T02:31:53.398Z,0.00
2018-05-14T02:32:53.413Z,0.00
2018-05-14T02:33:53.436Z,0.00
2018-05-14T02:34:53.455Z,0.00
2018-05-14T02:35:53.502Z,0.00
2018-05-14T02:36:53.491Z,0.00
2018-05-14T02:37:53.527Z,0.00
2018-05-14T02:38:53.568Z,0.00
2018-05-14T02:39:53.555Z,0.00
2018-05-14T02:40:53.584Z,0.00
2018-05-14T02:41:53.664Z,0.00
2018-05-14T02:42:53.616Z,4.00
2018-05-14T02:43:53.634Z,4.00
2018-05-14T02:44:53.655Z,4.00
2018-05-14T02:45:53.696Z,4.00
2018-05-14T02:46:53.690Z,4.00
2018-05-14T02:47:53.710Z,0.00
2018-05-14T02:48:53.745Z,0.00
2018-05-14T02:49:53.755Z,0.00
2018-05-14T02:50:53.766Z,4.00
2018-05-14T02:51:53.818Z,4.00
2018-05-14T02:52:53.918Z,4.00
2018-05-14T02:53:53.828Z,4.00
2018-05-14T02:54:53.906Z,4.00
2018-05-14T02:55:53.874Z,8.00
2018-05-14T02:56:53.899Z,4.00
2018-05-14T02:57:53.905Z,8.00
2018-05-14T02:58:53.923Z,8.00
2018-05-14T02:59:53.944Z,8.00
2018-05-14T03:00:54.010Z,12.00
2018-05-14T03:01:54.054Z,12.00
2018-05-14T03:02:54.003Z,12.00
2018-05-14T03:03:54.022Z,12.00
2018-05-14T03:04:54.083Z,16.00
2018-05-14T03:05:54.066Z,16.00
2018-05-14T03:06:54.081Z,20.00
2018-05-14T03:07:54.108Z,24.00
2018-05-14T03:08:54.177Z,24.00
2018-05-14T03:09:54.170Z,32.00
2018-05-14T03:10:54.152Z,36.00
2018-05-14T03:11:54.232Z,40.00
2018-05-14T03:12:54.257Z,44.00
2018-05-14T03:13:54.218Z,48.00
2018-05-14T03:14:54.273Z,56.00
2018-05-14T03:15:54.256Z,64.00
2018-05-14T03:16:54.384Z,72.00
2018-05-14T03:17:54.299Z,84.00
2018-05-14T03:18:54.307Z,92.00
2018-05-14T03:19:54.329Z,100.00
2018-05-14T03:20:54.557Z,112.00
2018-05-14T03:21:54.377Z,124.00
2018-05-14T03:22:54.389Z,140.00
2018-05-14T03:23:54.412Z,148.00
2018-05-14T03:24:54.449Z,152.00
2018-05-14T03:25:54.452Z,160.00
2018-05-14T03:26:54.472Z,176.00
2018-05-14T03:27:54.488Z,200.00
2018-05-14T03:28:54.531Z,216.00
2018-05-14T03:29:54.528Z,240.00
2018-05-14T03:30:54.545Z,252.00
2018-05-14T03:31:54.573Z,288.00
2018-05-14T03:32:54.596Z,304.00
2018-05-14T03:33:54.611Z,344.00
2018-05-14T03:34:54.628Z,392.00
2018-05-14T03:35:54.638Z,416.00
2018-05-14T03:36:54.661Z,444.00
2018-05-14T03:37:54.705Z,484.00
2018-05-14T03:38:54.804Z,524.00
2018-05-14T03:39:54.713Z,564.00
2018-05-14T03:40:54.795Z,628.00
2018-05-14T03:41:54.759Z,692.00
2018-05-14T03:42:54.782Z,704.00
2018-05-14T03:43:54.796Z,732.00
2018-05-14T03:44:54.826Z,792.00
2018-05-14T03:45:54.845Z,828.00
2018-05-14T03:46:54.857Z,852.00
2018-05-14T03:47:54.871Z,884.00
2018-05-14T03:48:54.895Z,892.00
2018-05-14T03:49:54.926Z,944.00
2018-05-14T03:50:54.937Z,992.00
2018-05-14T03:51:54.943Z,1028.00
2018-05-14T03:52:54.978Z,1136.00
2018-05-14T03:53:54.987Z,1120.00
2018-05-14T03:54:55.174Z,1180.00
2018-05-14T03:55:55.022Z,1280.00
2018-05-14T03:56:55.078Z,1300.00
2018-05-14T03:57:55.060Z,1420.00
2018-05-14T03:58:55.088Z,1528.00
2018-05-14T03:59:55.105Z,1676.00
2018-05-14T04:00:55.202Z,1692.00
2018-05-14T04:01:55.136Z,1800.00
2018-05-14T04:02:55.160Z,1956.00
2018-05-14T04:03:55.173Z,2072.00
2018-05-14T04:04:55.205Z,2136.00
2018-05-14T04:05:55.214Z,2360.00
2018-05-14T04:06:55.256Z,2468.00
2018-05-14T04:07:55.262Z,2600.00
2018-05-14T04:08:55.284Z,2920.00
2018-05-14T04:09:55.299Z,3112.00
2018-05-14T04:10:55.341Z,3268.00
2018-05-14T04:11:55.372Z,3432.00
2018-05-14T04:12:55.356Z,3684.00
2018-05-14T04:13:55.370Z,3840.00
2018-05-14T04:14:55.393Z,4200.00
2018-05-14T04:15:55.415Z,4376.00
2018-05-14T04:16:55.501Z,4460.00
2018-05-14T04:17:55.444Z,4652.00
2018-05-14T04:18:55.586Z,4896.00
2018-05-14T04:19:55.481Z,5008.00
2018-05-14T04:20:55.539Z,5064.00
2018-05-14T04:21:55.524Z,4912.00
2018-05-14T04:22:55.626Z,5412.00
2018-05-14T04:23:55.571Z,5492.00
2018-05-14T04:24:55.588Z,5936.00
2018-05-14T04:25:55.599Z,6364.00
2018-05-14T04:26:55.622Z,6528.00
2018-05-14T04:27:55.646Z,6584.00
2018-05-14T04:28:55.769Z,6876.00
2018-05-14T04:29:55.713Z,7472.00
2018-05-14T04:30:55.701Z,7820.00
2018-05-14T04:31:55.781Z,8424.00
2018-05-14T04:32:55.745Z,8132.00
2018-05-14T04:33:55.797Z,8108.00
2018-05-14T04:34:55.848Z,8968.00
2018-05-14T04:35:55.808Z,8704.00
2018-05-14T04:36:55.834Z,8176.00
2018-05-14T04:37:55.938Z,8800.00
2018-05-14T04:38:55.856Z,8844.00
2018-05-14T04:39:55.923Z,9112.00
2018-05-14T04:40:55.895Z,10680.00
2018-05-14T04:41:55.961Z,10400.00
2018-05-14T04:42:56.009Z,10368.00
2018-05-14T04:43:55.962Z,10708.00
2018-05-14T04:44:55.980Z,10660.00
2018-05-14T04:45:56.073Z,11132.00
2018-05-14T04:46:56.014Z,11048.00
2018-05-14T04:47:56.091Z,11192.00
2018-05-14T04:48:56.077Z,12224.00
2018-05-14T04:49:56.118Z,18656.00
2018-05-14T04:50:56.101Z,26336.00
2018-05-14T04:51:56.154Z,26496.00
2018-05-14T04:52:56.133Z,29248.00
2018-05-14T04:53:56.164Z,27552.00
2018-05-14T04:54:56.176Z,27520.00
2018-05-14T04:55:56.190Z,26912.00
2018-05-14T04:56:56.216Z,23680.00
2018-05-14T04:57:56.343Z,22944.00
2018-05-14T04:58:56.269Z,22272.00
2018-05-14T04:59:56.280Z,20576.00
2018-05-14T05:00:56.302Z,20288.00
2018-05-14T05:01:56.326Z,21376.00
2018-05-14T05:02:56.349Z,21760.00
2018-05-14T05:03:56.566Z,21824.00
2018-05-14T05:04:56.427Z,21824.00
2018-05-14T05:05:56.432Z,21760.00
2018-05-14T05:06:56.464Z,23072.00
2018-05-14T05:07:56.673Z,26048.00
2018-05-14T05:08:56.484Z,29568.00
2018-05-14T05:09:56.537Z,32448.00
2018-05-14T05:10:56.672Z,33792.00
2018-05-14T05:11:56.723Z,35808.00
2018-05-14T05:12:56.668Z,36544.00
2018-05-14T05:13:56.632Z,37504.00
2018-05-14T05:14:56.650Z,37376.00
2018-05-14T05:15:56.715Z,38400.00
2018-05-14T05:16:56.681Z,41280.00
2018-05-14T05:17:56.718Z,43136.00
2018-05-14T05:18:56.735Z,43808.00
2018-05-14T05:19:56.757Z,44896.00
2018-05-14T05:20:56.840Z,46656.00
2018-05-14T05:21:56.861Z,46144.00
2018-05-14T05:22:56.841Z,46464.00
2018-05-14T05:23:56.937Z,46560.00
2018-05-14T05:24:56.888Z,46528.00
2018-05-14T05:25:57.035Z,46976.00
2018-05-14T05:26:56.938Z,46752.00
2018-05-14T05:27:56.962Z,47616.00
2018-05-14T05:28:57.046Z,48512.00
2018-05-14T05:29:57.023Z,48416.00
2018-05-14T05:30:57.106Z,47936.00
2018-05-14T05:31:57.146Z,47232.00
2018-05-14T05:32:57.101Z,46624.00
2018-05-14T05:33:57.160Z,46848.00
2018-05-14T05:34:57.151Z,47616.00
2018-05-14T05:35:57.176Z,48000.00
2018-05-14T05:36:57.207Z,47008.00
2018-05-14T05:37:57.310Z,45600.00
2018-05-14T05:38:57.291Z,43520.00
2018-05-14T05:39:57.307Z,43232.00
2018-05-14T05:40:57.401Z,43296.00
2018-05-14T05:41:57.372Z,43392.00
2018-05-14T05:42:57.369Z,42944.00
2018-05-14T05:43:57.397Z,41856.00
2018-05-14T05:44:57.423Z,40832.00
2018-05-14T05:45:57.448Z,39392.00
2018-05-14T05:46:57.478Z,36832.00
2018-05-14T05:47:57.504Z,37344.00
2018-05-14T05:48:57.614Z,36992.00
2018-05-14T05:49:57.595Z,36544.00
2018-05-14T05:50:57.734Z,36704.00
2018-05-14T05:51:57.617Z,36672.00
2018-05-14T05:52:57.732Z,35680.00
2018-05-14T05:53:57.748Z,31904.00
2018-05-14T05:54:57.705Z,30208.00
2018-05-14T05:55:57.756Z,30976.00
2018-05-14T05:56:57.762Z,28320.00
2018-05-14T05:57:57.795Z,30272.00
2018-05-14T05:58:57.924Z,31904.00
2018-05-14T05:59:57.845Z,29024.00
2018-05-14T06:00:57.876Z,29824.00
2018-05-14T06:01:57.926Z,32096.00
2018-05-14T06:02:57.994Z,35392.00
2018-05-14T06:03:57.976Z,56704.00
2018-05-14T06:04:58.073Z,85088.00
2018-05-14T06:05:58.076Z,109280.00
2018-05-14T06:06:58.065Z,122848.00
2018-05-14T06:07:58.077Z,124384.00
2018-05-14T06:08:58.115Z,104160.00
2018-05-14T06:09:58.146Z,99808.00
2018-05-14T06:10:58.208Z,101536.00
2018-05-14T06:11:58.193Z,107232.00
2018-05-14T06:12:58.238Z,111072.00
2018-05-14T06:13:58.261Z,106400.00
2018-05-14T06:14:58.301Z,95136.00
2018-05-14T06:15:58.317Z,86400.00
2018-05-14T06:16:58.342Z,81984.00
2018-05-14T06:17:58.377Z,76896.00
2018-05-14T06:18:58.400Z,70944.00
2018-05-14T06:19:58.431Z,68448.00
2018-05-14T06:20:58.457Z,69152.00
2018-05-14T06:21:58.493Z,71040.00
2018-05-14T06:22:58.530Z,77184.00
2018-05-14T06:23:58.549Z,85376.00
2018-05-14T06:24:58.580Z,85920.00
2018-05-14T06:25:58.612Z,78912.00
2018-05-14T06:26:58.646Z,73856.00
2018-05-14T06:27:58.753Z,72096.00
2018-05-14T06:28:58.707Z,68608.00
2018-05-14T06:29:58.746Z,75392.00
2018-05-14T06:30:58.761Z,76864.00
2018-05-14T06:31:58.794Z,81408.00
2018-05-14T06:32:58.828Z,82304.00
2018-05-14T06:33:58.888Z,81536.00
2018-05-14T06:34:58.921Z,90816.00
2018-05-14T06:35:58.921Z,93376.00
2018-05-14T06:36:58.950Z,91488.00
2018-05-14T06:37:58.980Z,92032.00
2018-05-14T06:38:59.015Z,89536.00
2018-05-14T06:39:59.173Z,88288.00
2018-05-14T06:40:59.238Z,88128.00
2018-05-14T06:41:59.108Z,87840.00
2018-05-14T06:42:59.217Z,86656.00
2018-05-14T06:43:59.161Z,84448.00
2018-05-14T06:44:59.197Z,82464.00
2018-05-14T06:45:59.351Z,75552.00
2018-05-14T06:46:59.259Z,81120.00
2018-05-14T06:47:59.343Z,67328.00
2018-05-14T06:48:59.436Z,81504.00
2018-05-14T06:49:59.360Z,84800.00
2018-05-14T06:50:59.387Z,85440.00
2018-05-14T06:51:59.409Z,86048.00
2018-05-14T06:52:59.560Z,85856.00
2018-05-14T06:53:59.479Z,85856.00
2018-05-14T06:54:59.509Z,86528.00
2018-05-14T06:55:59.539Z,88544.00
2018-05-14T06:56:59.564Z,89952.00
2018-05-14T06:57:59.690Z,90080.00
2018-05-14T06:58:59.637Z,86240.00
2018-05-14T06:59:59.665Z,82304.00
2018-05-14T07:00:59.688Z,81216.00
2018-05-14T07:01:59.818Z,77440.00
2018-05-14T07:02:59.757Z,77664.00
2018-05-14T07:03:59.786Z,82304.00
2018-05-14T07:04:59.890Z,86816.00
2018-05-14T07:05:59.852Z,90560.00
2018-05-14T07:06:59.877Z,96800.00
2018-05-14T07:07:59.899Z,99456.00
2018-05-14T07:08:59.928Z,95424.00
2018-05-14T07:09:59.977Z,89472.00
2018-05-14T07:11:00.089Z,80640.00
2018-05-14T07:12:00.022Z,72512.00
2018-05-14T07:13:00.056Z,72640.00
2018-05-14T07:14:00.150Z,74304.00
2018-05-14T07:15:00.113Z,73792.00
2018-05-14T07:16:00.149Z,71520.00
2018-05-14T07:17:00.245Z,70720.00
2018-05-14T07:18:00.204Z,69152.00
2018-05-14T07:19:00.247Z,69728.00
2018-05-14T07:20:00.323Z,72608.00
2018-05-14T07:21:00.410Z,72768.00
2018-05-14T07:22:00.402Z,72800.00
2018-05-14T07:23:00.366Z,70784.00
2018-05-14T07:24:00.490Z,69408.00
2018-05-14T07:25:00.421Z,68448.00
2018-05-14T07:26:00.543Z,69888.00
2018-05-14T07:27:00.480Z,72320.00
2018-05-14T07:28:00.507Z,74560.00
2018-05-14T07:29:00.534Z,72384.00
2018-05-14T07:30:00.586Z,69888.00
2018-05-14T07:31:00.661Z,68288.00
2018-05-14T07:32:00.639Z,69248.00
2018-05-14T07:33:00.659Z,71968.00
2018-05-14T07:34:00.692Z,71264.00
2018-05-14T07:35:00.713Z,72864.00
2018-05-14T07:36:00.781Z,73952.00
2018-05-14T07:37:00.781Z,72256.00
2018-05-14T07:38:00.801Z,71072.00
2018-05-14T07:39:00.832Z,68064.00
2018-05-14T07:40:00.893Z,63360.00
2018-05-14T07:41:00.906Z,63520.00
2018-05-14T07:42:00.922Z,66560.00
2018-05-14T07:43:00.953Z,67648.00
2018-05-14T07:44:00.981Z,68960.00
2018-05-14T07:45:01.017Z,68576.00
2018-05-14T07:46:01.115Z,65088.00
2018-05-14T07:47:01.068Z,58240.00
2018-05-14T07:48:01.106Z,55488.00
2018-05-14T07:49:01.125Z,56160.00
2018-05-14T07:50:01.162Z,56992.00
2018-05-14T07:51:01.180Z,62784.00
2018-05-14T07:52:01.216Z,66432.00
2018-05-14T07:53:01.243Z,71040.00
2018-05-14T07:54:01.270Z,75232.00
2018-05-14T07:55:01.299Z,75424.00
2018-05-14T07:56:01.331Z,75648.00
2018-05-14T07:57:01.400Z,76576.00
2018-05-14T07:58:01.391Z,77472.00
2018-05-14T07:59:01.487Z,78304.00
2018-05-14T08:00:01.475Z,77536.00
2018-05-14T08:01:01.523Z,76128.00
2018-05-14T08:02:01.507Z,75840.00
2018-05-14T08:03:01.540Z,74656.00
2018-05-14T08:04:01.612Z,74016.00
2018-05-14T08:05:01.594Z,75552.00
2018-05-14T08:06:01.620Z,74688.00
2018-05-14T08:07:01.649Z,76768.00
2018-05-14T08:08:01.680Z,75488.00
2018-05-14T08:09:01.706Z,73600.00
2018-05-14T08:10:01.740Z,74240.00
2018-05-14T08:11:01.797Z,76256.00
2018-05-14T08:12:01.835Z,75520.00
2018-05-14T08:13:01.850Z,74336.00
2018-05-14T08:14:01.849Z,74592.00
2018-05-14T08:15:01.995Z,73664.00
2018-05-14T08:16:01.913Z,73248.00
2018-05-14T08:17:01.982Z,74016.00
2018-05-14T08:18:01.964Z,75424.00
2018-05-14T08:19:02.000Z,73920.00
2018-05-14T08:20:02.162Z,75904.00
2018-05-14T08:21:02.060Z,76480.00
2018-05-14T08:22:02.082Z,71968.00
2018-05-14T08:23:02.106Z,68224.00
2018-05-14T08:24:02.132Z,65120.00
2018-05-14T08:25:02.159Z,65408.00
2018-05-14T08:26:02.193Z,69728.00
2018-05-14T08:27:02.217Z,48896.00
2018-05-14T08:28:02.344Z,14808.00
2018-05-14T08:29:02.272Z,9780.00
2018-05-14T08:30:02.294Z,9296.00
2018-05-14T08:31:02.324Z,9140.00
2018-05-14T08:32:02.414Z,9096.00
2018-05-14T08:33:02.445Z,9052.00
2018-05-14T08:34:02.497Z,9024.00
2018-05-14T08:35:02.473Z,9004.00
2018-05-14T08:36:02.452Z,8976.00
2018-05-14T08:37:02.573Z,8948.00
2018-05-14T08:38:02.504Z,8932.00
2018-05-14T08:39:02.535Z,8916.00
2018-05-14T08:40:02.637Z,8880.00
2018-05-14T08:41:02.581Z,8828.00
2018-05-14T08:42:02.611Z,8776.00
2018-05-14T08:43:02.626Z,8740.00
2018-05-14T08:44:02.658Z,8704.00
2018-05-14T08:45:02.678Z,8660.00
2018-05-14T08:46:02.708Z,8620.00
2018-05-14T08:47:02.733Z,8588.00
2018-05-14T08:48:02.834Z,8568.00
2018-05-14T08:49:02.784Z,8532.00
2018-05-14T08:50:02.883Z,8496.00
2018-05-14T08:51:02.830Z,8460.00
2018-05-14T08:52:02.868Z,8432.00
2018-05-14T08:53:02.891Z,8404.00
2018-05-14T08:54:02.902Z,8388.00
2018-05-14T08:55:02.993Z,8372.00
2018-05-14T08:56:02.959Z,8376.00
2018-05-14T08:57:03.205Z,8360.00
2018-05-14T08:58:02.998Z,8368.00
2018-05-14T08:59:03.067Z,8336.00
2018-05-14T09:00:03.131Z,8316.00
2018-05-14T09:01:03.077Z,8288.00
2018-05-14T09:02:03.096Z,8260.00
2018-05-14T09:03:03.125Z,8248.00
2018-05-14T09:04:03.145Z,8240.00
2018-05-14T09:05:03.278Z,8256.00
2018-05-14T09:06:03.214Z,8244.00
2018-05-14T09:07:03.495Z,8228.00
2018-05-14T09:08:03.252Z,8212.00
2018-05-14T09:09:03.526Z,8200.00
2018-05-14T09:10:03.323Z,8196.00
2018-05-14T09:11:03.318Z,8168.00
2018-05-14T09:12:03.428Z,8172.00
2018-05-14T09:13:03.420Z,8172.00
2018-05-14T09:14:03.395Z,8176.00
2018-05-14T09:15:03.417Z,8188.00
2018-05-14T09:16:03.496Z,8172.00
2018-05-14T09:17:03.475Z,8156.00
2018-05-14T09:18:03.626Z,8144.00
2018-05-14T09:19:03.517Z,8124.00
2018-05-14T09:20:03.538Z,8120.00
2018-05-14T09:21:03.578Z,8100.00
2018-05-14T09:22:03.656Z,8100.00
2018-05-14T09:23:03.612Z,8092.00
2018-05-14T09:24:03.662Z,8108.00
2018-05-14T09:25:03.657Z,8100.00
2018-05-14T09:26:03.683Z,8088.00
2018-05-14T09:27:03.699Z,8088.00
2018-05-14T09:28:03.729Z,8084.00
2018-05-14T09:29:03.761Z,8080.00
2018-05-14T09:30:03.774Z,8100.00
2018-05-14T09:31:03.855Z,8104.00
2018-05-14T09:32:03.836Z,8108.00
2018-05-14T09:33:03.845Z,8116.00
2018-05-14T09:34:03.876Z,8108.00
2018-05-14T09:35:04.040Z,8084.00
2018-05-14T09:36:03.923Z,8060.00
2018-05-14T09:37:03.944Z,8028.00
2018-05-14T09:38:03.969Z,8020.00
2018-05-14T09:39:04.063Z,8020.00
2018-05-14T09:40:04.084Z,8000.00
2018-05-14T09:41:04.116Z,7988.00
2018-05-14T09:42:04.095Z,7988.00
2018-05-14T09:43:04.125Z,8000.00
2018-05-14T09:44:04.116Z,7988.00
2018-05-14T09:45:04.164Z,7976.00
2018-05-14T09:46:04.308Z,7968.00
2018-05-14T09:47:04.188Z,7928.00
2018-05-14T09:48:04.212Z,7912.00
2018-05-14T09:49:04.234Z,7864.00
2018-05-14T09:50:04.262Z,7848.00
2018-05-14T09:51:04.296Z,7848.00
2018-05-14T09:52:04.381Z,7816.00
2018-05-14T09:53:04.398Z,7812.00
2018-05-14T09:54:04.373Z,7824.00
2018-05-14T09:55:04.428Z,7812.00
2018-05-14T09:56:04.407Z,7796.00
2018-05-14T09:57:04.434Z,7844.00
2018-05-14T09:58:04.553Z,7848.00
2018-05-14T09:59:04.623Z,7852.00
2018-05-14T10:00:04.605Z,7852.00
2018-05-14T10:01:04.532Z,7848.00
2018-05-14T10:02:04.751Z,7824.00
2018-05-14T10:03:04.589Z,7784.00
2018-05-14T10:04:04.604Z,7776.00
2018-05-14T10:05:04.648Z,7768.00
2018-05-14T10:06:04.673Z,7764.00
2018-05-14T10:07:04.675Z,7736.00
2018-05-14T10:08:04.706Z,7716.00
2018-05-14T10:09:04.728Z,7732.00
2018-05-14T10:10:04.751Z,7744.00
2018-05-14T10:11:04.778Z,7728.00
2018-05-14T10:12:04.802Z,7720.00
2018-05-14T10:13:04.833Z,7704.00
2018-05-14T10:14:04.849Z,7680.00
2018-05-14T10:15:05.005Z,7636.00
2018-05-14T10:16:04.898Z,7624.00
2018-05-14T10:17:04.923Z,7644.00
2018-05-14T10:18:04.945Z,7632.00
2018-05-14T10:19:04.972Z,7628.00
2018-05-14T10:20:05.003Z,7620.00
2018-05-14T10:21:05.084Z,7608.00
2018-05-14T10:22:05.046Z,7608.00
2018-05-14T10:23:05.072Z,7608.00
2018-05-14T10:24:05.119Z,7608.00
2018-05-14T10:25:05.163Z,7604.00
2018-05-14T10:26:05.145Z,7576.00
2018-05-14T10:27:05.178Z,7552.00
2018-05-14T10:28:05.197Z,7540.00
2018-05-14T10:29:05.236Z,7532.00
2018-05-14T10:30:05.239Z,7540.00
2018-05-14T10:31:05.268Z,7548.00
2018-05-14T10:32:05.347Z,7564.00
2018-05-14T10:33:05.314Z,7560.00
2018-05-14T10:34:05.343Z,7572.00
2018-05-14T10:35:05.367Z,7576.00
2018-05-14T10:36:05.391Z,7572.00
2018-05-14T10:37:05.413Z,7532.00
2018-05-14T10:38:05.441Z,7528.00
2018-05-14T10:39:05.555Z,7520.00
2018-05-14T10:40:05.546Z,7516.00
2018-05-14T10:41:05.523Z,7544.00
2018-05-14T10:42:05.547Z,7556.00
2018-05-14T10:43:05.602Z,7536.00
2018-05-14T10:44:05.584Z,7528.00
2018-05-14T10:45:05.615Z,7508.00
2018-05-14T10:46:05.644Z,7492.00
2018-05-14T10:47:05.682Z,7460.00
2018-05-14T10:48:05.729Z,7420.00
2018-05-14T10:49:05.751Z,7416.00
2018-05-14T10:50:05.736Z,7428.00
2018-05-14T10:51:05.759Z,7456.00
2018-05-14T10:52:05.832Z,7472.00
2018-05-14T10:53:05.807Z,7404.00
2018-05-14T10:54:05.838Z,7404.00
2018-05-14T10:55:05.864Z,7420.00
2018-05-14T10:56:05.895Z,7416.00
2018-05-14T10:57:05.909Z,7412.00
2018-05-14T10:58:05.963Z,7388.00
2018-05-14T10:59:05.961Z,7364.00
2018-05-14T11:00:05.978Z,7340.00
2018-05-14T11:01:06.003Z,7336.00
2018-05-14T11:02:06.029Z,7328.00
2018-05-14T11:03:06.072Z,7316.00
2018-05-14T11:04:06.165Z,7324.00
2018-05-14T11:05:06.116Z,7344.00
2018-05-14T11:06:06.133Z,7260.00
2018-05-14T11:07:06.158Z,7244.00
2018-05-14T11:08:06.179Z,7240.00
2018-05-14T11:09:06.209Z,7280.00
2018-05-14T11:10:06.347Z,7328.00
2018-05-14T11:11:06.253Z,7392.00
2018-05-14T11:12:06.311Z,7388.00
2018-05-14T11:13:06.301Z,7316.00
2018-05-14T11:14:06.335Z,7276.00
2018-05-14T11:15:06.356Z,7236.00
2018-05-14T11:16:06.373Z,7196.00
2018-05-14T11:17:06.407Z,7164.00
2018-05-14T11:18:06.422Z,7244.00
2018-05-14T11:19:06.452Z,7196.00
2018-05-14T11:20:06.473Z,7124.00
2018-05-14T11:21:06.543Z,7104.00
2018-05-14T11:22:06.523Z,7088.00
2018-05-14T11:23:06.550Z,7260.00
2018-05-14T11:24:06.567Z,7288.00
2018-05-14T11:25:06.621Z,7260.00
2018-05-14T11:26:06.625Z,7236.00
2018-05-14T11:27:06.680Z,7252.00
2018-05-14T11:28:06.726Z,7256.00
2018-05-14T11:29:06.699Z,7252.00
2018-05-14T11:30:06.716Z,7220.00
2018-05-14T11:31:06.741Z,7200.00
2018-05-14T11:32:06.805Z,7208.00
2018-05-14T11:33:06.790Z,7208.00
2018-05-14T11:34:06.820Z,7204.00
2018-05-14T11:35:06.911Z,7184.00
2018-05-14T11:36:06.917Z,7180.00
2018-05-14T11:37:06.888Z,7168.00
2018-05-14T11:38:06.917Z,7164.00
2018-05-14T11:39:06.938Z,7164.00
2018-05-14T11:40:06.963Z,7252.00
2018-05-14T11:41:07.002Z,7248.00
2018-05-14T11:42:07.102Z,7252.00
2018-05-14T11:43:07.126Z,7284.00
2018-05-14T11:44:07.062Z,7296.00
2018-05-14T11:45:07.089Z,7300.00
2018-05-14T11:46:07.180Z,7292.00
2018-05-14T11:47:07.139Z,7200.00
2018-05-14T11:48:07.249Z,7136.00
2018-05-14T11:49:07.184Z,7192.00
2018-05-14T11:50:07.203Z,7284.00
2018-05-14T11:51:07.336Z,7248.00
2018-05-14T11:52:07.253Z,7240.00
2018-05-14T11:53:07.291Z,7256.00
2018-05-14T11:54:07.351Z,7216.00
2018-05-14T11:55:07.331Z,7212.00
2018-05-14T11:56:07.355Z,7216.00
2018-05-14T11:57:07.376Z,7224.00
2018-05-14T11:58:07.475Z,7240.00
2018-05-14T11:59:07.432Z,7228.00
2018-05-14T12:00:07.457Z,7240.00
2018-05-14T12:01:07.474Z,7272.00
2018-05-14T12:02:07.497Z,7284.00
2018-05-14T12:03:07.621Z,7296.00
2018-05-14T12:04:07.632Z,7336.00
2018-05-14T12:05:07.574Z,7884.00
2018-05-14T12:06:07.594Z,7368.00
2018-05-14T12:07:07.636Z,7376.00
2018-05-14T12:08:07.646Z,7372.00
2018-05-14T12:09:07.678Z,7364.00
2018-05-14T12:10:07.788Z,7416.00
2018-05-14T12:11:07.773Z,7432.00
2018-05-14T12:12:07.763Z,7460.00
2018-05-14T12:13:07.773Z,7412.00
2018-05-14T12:14:07.793Z,7408.00
2018-05-14T12:15:07.824Z,7384.00
2018-05-14T12:16:07.895Z,7380.00
2018-05-14T12:17:07.937Z,7396.00
2018-05-14T12:18:07.950Z,7400.00